createdAt,value
2018-03-21T00:02:21.158Z,-7.30
2018-03-21T00:04:47.257Z,-7.30
2018-03-21T00:07:13.363Z,-7.40
2018-03-21T00:09:39.466Z,-7.50
2018-03-21T00:12:05.564Z,-7.60
2018-03-21T00:14:32.411Z,-7.70
2018-03-21T00:16:59.222Z,-7.70
2018-03-21T00:19:25.306Z,-7.80
2018-03-21T00:21:52.113Z,-7.80
2018-03-21T00:24:18.204Z,-7.80
2018-03-21T00:26:44.290Z,-7.90
2018-03-21T00:29:10.392Z,-7.90
2018-03-21T00:31:36.514Z,-8.00
2018-03-21T00:34:03.322Z,-8.00
2018-03-21T00:36:29.421Z,-8.00
2018-03-21T00:38:55.495Z,-8.00
2018-03-21T00:41:21.598Z,-8.00
2018-03-21T00:43:47.671Z,-8.10
2018-03-21T00:46:13.739Z,-8.10
2018-03-21T00:48:39.830Z,-8.00
2018-03-21T00:51:05.960Z,-8.10
2018-03-21T00:53:32.058Z,-8.20
2018-03-21T00:55:58.127Z,-8.20
2018-03-21T00:58:24.218Z,-8.30
2018-03-21T01:00:50.292Z,-8.30
2018-03-21T01:03:16.386Z,-8.30
2018-03-21T01:05:42.457Z,-8.30
2018-03-21T01:08:09.298Z,-8.50
2018-03-21T01:10:35.365Z,-8.50
2018-03-21T01:13:01.426Z,-8.60
2018-03-21T01:15:27.523Z,-8.60
2018-03-21T01:17:54.366Z,-8.60
2018-03-21T01:20:20.474Z,-8.60
2018-03-21T01:22:46.551Z,-8.50
2018-03-21T01:25:13.386Z,-8.60
2018-03-21T01:27:39.471Z,-8.60
2018-03-21T01:30:05.618Z,-8.60
2018-03-21T01:32:31.666Z,-8.70
2018-03-21T01:34:57.746Z,-8.70
2018-03-21T01:37:23.821Z,-8.80
2018-03-21T01:39:49.907Z,-8.90
2018-03-21T01:42:16.009Z,-8.90
2018-03-21T01:44:42.062Z,-8.90
2018-03-21T01:47:08.150Z,-8.90
2018-03-21T01:49:34.983Z,-8.90
2018-03-21T01:52:01.049Z,-8.90
2018-03-21T01:54:27.863Z,-9.00
2018-03-21T01:56:53.953Z,-9.10
2018-03-21T01:59:20.014Z,-9.10
2018-03-21T02:01:46.138Z,-9.10
2018-03-21T02:04:12.203Z,-9.10
2018-03-21T02:06:38.258Z,-9.00
2018-03-21T02:09:04.354Z,-9.10
2018-03-21T02:11:30.415Z,-9.10
2018-03-21T02:13:56.556Z,-9.20
2018-03-21T02:16:23.690Z,-9.10
2018-03-21T02:18:49.743Z,-9.20
2018-03-21T02:21:15.847Z,-9.30
2018-03-21T02:23:41.902Z,-9.40
2018-03-21T02:26:07.964Z,-9.40
2018-03-21T02:28:34.084Z,-9.40
2018-03-21T02:31:00.158Z,-9.30
2018-03-21T02:33:26.358Z,-9.30
2018-03-21T02:35:52.418Z,-9.40
2018-03-21T02:38:18.610Z,-9.40
2018-03-21T02:40:45.451Z,-9.40
2018-03-21T02:43:11.524Z,-9.40
2018-03-21T02:45:37.620Z,-9.50
2018-03-21T02:48:03.726Z,-9.60
2018-03-21T02:50:29.799Z,-9.60
2018-03-21T02:52:55.908Z,-9.50
2018-03-21T02:55:21.969Z,-9.50
2018-03-21T02:57:48.190Z,-9.60
2018-03-21T03:00:14.287Z,-9.70
2018-03-21T03:02:40.355Z,-9.70
2018-03-21T03:05:06.454Z,-9.70
2018-03-21T03:07:33.272Z,-9.80
2018-03-21T03:09:59.482Z,-9.80
2018-03-21T03:12:25.586Z,-9.90
2018-03-21T03:14:52.395Z,-10.00
2018-03-21T03:17:18.467Z,-9.90
2018-03-21T03:19:45.322Z,-10.00
2018-03-21T03:22:12.146Z,-10.00
2018-03-21T03:24:38.214Z,-10.00
2018-03-21T03:27:05.044Z,-10.00
2018-03-21T03:29:31.146Z,-10.10
2018-03-21T03:31:57.238Z,-10.00
2018-03-21T03:34:23.344Z,-10.00
2018-03-21T03:36:49.442Z,-10.00
2018-03-21T03:39:15.558Z,-9.90
2018-03-21T03:41:42.357Z,-10.00
2018-03-21T03:44:08.419Z,-10.00
2018-03-21T03:46:34.515Z,-10.00
2018-03-21T03:49:00.659Z,-10.00
2018-03-21T03:51:26.798Z,-10.10
2018-03-21T03:53:58.936Z,-10.20
2018-03-21T03:56:25.009Z,-10.30
2018-03-21T03:58:51.165Z,-10.40
2018-03-21T04:01:17.284Z,-10.40
2018-03-21T04:03:43.506Z,-10.50
2018-03-21T04:06:09.542Z,-10.50
2018-03-21T04:08:36.354Z,-10.60
2018-03-21T04:11:02.487Z,-10.60
2018-03-21T04:13:28.570Z,-10.60
2018-03-21T04:15:55.386Z,-10.70
2018-03-21T04:18:21.491Z,-10.70
2018-03-21T04:20:47.567Z,-10.70
2018-03-21T04:23:13.663Z,-10.70
2018-03-21T04:25:39.797Z,-10.70
2018-03-21T04:28:05.883Z,-10.80
2018-03-21T04:30:31.980Z,-10.80
2018-03-21T04:32:58.090Z,-10.80
2018-03-21T04:35:24.897Z,-10.80
2018-03-21T04:37:50.958Z,-10.90
2018-03-21T04:40:17.067Z,-10.80
2018-03-21T04:42:43.163Z,-10.80
2018-03-21T04:45:09.998Z,-10.90
2018-03-21T04:47:36.178Z,-10.90
2018-03-21T04:50:02.274Z,-11.00
2018-03-21T04:52:28.351Z,-11.00
2018-03-21T04:54:54.474Z,-11.10
2018-03-21T04:57:21.298Z,-11.20
2018-03-21T04:59:47.394Z,-11.20
2018-03-21T05:02:13.462Z,-11.10
2018-03-21T05:04:39.564Z,-11.10
2018-03-21T05:07:05.642Z,-11.20
2018-03-21T05:09:31.734Z,-11.30
2018-03-21T05:11:57.803Z,-11.30
2018-03-21T05:14:23.904Z,-11.30
2018-03-21T05:16:50.722Z,-11.30
2018-03-21T05:19:16.813Z,-11.30
2018-03-21T05:21:42.906Z,-11.40
2018-03-21T05:24:08.978Z,-11.40
2018-03-21T05:26:35.072Z,-11.40
2018-03-21T05:29:01.130Z,-11.40
2018-03-21T05:31:28.120Z,-11.20
2018-03-21T05:33:54.186Z,-11.20
2018-03-21T05:36:20.274Z,-11.20
2018-03-21T05:38:46.467Z,-11.20
2018-03-21T05:41:12.556Z,-11.20
2018-03-21T05:43:39.354Z,-11.20
2018-03-21T05:46:05.443Z,-11.20
2018-03-21T05:48:32.315Z,-11.20
2018-03-21T05:50:59.203Z,-11.20
2018-03-21T05:53:25.306Z,-11.10
2018-03-21T05:55:51.386Z,-11.00
2018-03-21T05:58:17.454Z,-11.00
2018-03-21T06:00:43.542Z,-10.80
2018-03-21T06:03:09.594Z,-10.80
2018-03-21T06:05:35.683Z,-10.70
2018-03-21T06:08:02.490Z,-10.60
2018-03-21T06:10:28.591Z,-10.60
2018-03-21T06:12:54.651Z,-10.50
2018-03-21T06:15:20.716Z,-10.50
2018-03-21T06:17:46.798Z,-10.40
2018-03-21T06:20:12.866Z,-10.40
2018-03-21T06:22:38.939Z,-10.20
2018-03-21T06:25:05.007Z,-10.20
2018-03-21T06:27:31.798Z,-10.00
2018-03-21T06:29:57.922Z,-10.00
2018-03-21T06:32:24.063Z,-9.90
2018-03-21T06:34:50.119Z,-9.80
2018-03-21T06:37:16.203Z,-9.70
2018-03-21T06:39:43.100Z,-9.50
2018-03-21T06:42:09.158Z,-9.60
2018-03-21T06:44:35.288Z,-9.40
2018-03-21T06:47:01.308Z,-9.20
2018-03-21T06:49:27.383Z,-9.10
2018-03-21T06:51:53.459Z,-8.90
2018-03-21T06:54:19.538Z,-8.80
2018-03-21T06:56:45.590Z,-8.70
2018-03-21T06:59:11.670Z,-8.60
2018-03-21T07:01:37.766Z,-8.50
2018-03-21T07:04:03.830Z,-8.40
2018-03-21T07:06:30.654Z,-8.10
2018-03-21T07:08:56.735Z,-8.10
2018-03-21T07:11:22.826Z,-7.90
2018-03-21T07:14:01.227Z,-7.80
2018-03-21T07:16:37.542Z,-7.60
2018-03-21T07:19:03.648Z,-7.40
2018-03-21T07:21:29.759Z,-7.20
2018-03-21T07:23:55.855Z,-7.10
2018-03-21T07:26:21.940Z,-6.80
2018-03-21T07:28:48.046Z,-6.70
2018-03-21T07:31:14.158Z,-6.60
2018-03-21T07:33:40.248Z,-6.50
2018-03-21T07:36:06.315Z,-6.30
2018-03-21T07:38:32.384Z,-6.30
2018-03-21T07:40:58.462Z,-6.10
2018-03-21T07:43:24.535Z,-6.00
2018-03-21T07:45:50.628Z,-5.80
2018-03-21T07:48:16.755Z,-5.70
2018-03-21T07:50:43.634Z,-5.40
2018-03-21T07:53:09.664Z,-5.50
2018-03-21T07:55:35.765Z,-5.40
2018-03-21T07:58:01.851Z,-5.40
2018-03-21T08:00:27.910Z,-5.30
2018-03-21T08:02:53.992Z,-5.10
2018-03-21T08:05:20.994Z,-4.90
2018-03-21T08:07:47.058Z,-4.90
2018-03-21T08:10:13.138Z,-4.70
2018-03-21T08:12:39.975Z,-4.50
2018-03-21T08:15:06.039Z,-4.50
2018-03-21T08:17:32.104Z,-4.40
2018-03-21T08:19:58.202Z,-4.20
2018-03-21T08:22:25.042Z,-3.90
2018-03-21T08:24:51.110Z,-3.90
2018-03-21T08:27:17.204Z,-3.70
2018-03-21T08:29:43.284Z,-3.50
2018-03-21T08:32:09.402Z,-3.20
2018-03-21T08:34:36.214Z,-2.70
2018-03-21T08:37:02.295Z,-2.70
2018-03-21T08:39:29.106Z,-2.30
2018-03-21T08:41:55.183Z,-2.30
2018-03-21T08:44:21.251Z,-2.20
2018-03-21T08:46:47.322Z,-2.00
2018-03-21T08:49:13.428Z,-1.90
2018-03-21T08:51:39.498Z,-1.80
2018-03-21T08:54:05.563Z,-1.70
2018-03-21T08:56:31.648Z,-1.50
2018-03-21T08:58:57.706Z,-1.50
2018-03-21T09:01:23.778Z,-1.40
2018-03-21T09:03:49.839Z,-1.30
2018-03-21T09:06:16.661Z,-1.20
2018-03-21T09:08:42.758Z,-1.20
2018-03-21T09:11:08.823Z,-1.00
2018-03-21T09:13:34.887Z,-0.90
2018-03-21T09:16:00.967Z,-0.90
2018-03-21T09:18:27.058Z,-0.80
2018-03-21T09:20:53.123Z,-0.60
2018-03-21T09:23:19.207Z,-0.40
2018-03-21T09:25:45.299Z,-0.30
2018-03-21T09:28:11.372Z,-0.30
2018-03-21T09:30:37.459Z,-0.10
2018-03-21T09:33:04.294Z,-0.10
2018-03-21T09:35:30.526Z,-0.10
2018-03-21T09:37:56.594Z,-0.10
2018-03-21T09:40:23.411Z,0.20
2018-03-21T09:42:49.515Z,0.10
2018-03-21T09:45:15.575Z,0.20
2018-03-21T09:47:41.648Z,0.30
2018-03-21T09:50:07.735Z,0.50
2018-03-21T09:52:33.811Z,0.60
2018-03-21T09:54:59.907Z,0.70
2018-03-21T09:57:25.979Z,0.90
2018-03-21T09:59:52.060Z,1.10
2018-03-21T10:02:18.127Z,1.10
2018-03-21T10:04:44.264Z,1.10
2018-03-21T10:07:10.335Z,1.20
2018-03-21T10:09:36.415Z,1.40
2018-03-21T10:12:03.263Z,1.60
2018-03-21T10:14:30.062Z,1.60
2018-03-21T10:16:56.114Z,1.60
2018-03-21T10:19:22.251Z,1.70
2018-03-21T10:21:48.327Z,1.60
2018-03-21T10:24:15.175Z,1.70
2018-03-21T10:26:41.978Z,1.90
2018-03-21T10:29:08.095Z,1.90
2018-03-21T10:31:34.163Z,2.00
2018-03-21T10:34:00.234Z,1.90
2018-03-21T10:36:26.306Z,2.00
2018-03-21T10:38:52.423Z,2.20
2018-03-21T10:41:19.271Z,2.30
2018-03-21T10:43:45.351Z,2.30
2018-03-21T10:46:11.442Z,2.50
2018-03-21T10:48:37.519Z,2.60
2018-03-21T10:51:03.611Z,2.60
2018-03-21T10:53:29.680Z,2.60
2018-03-21T10:55:56.478Z,2.60
2018-03-21T10:58:22.573Z,2.60
2018-03-21T11:00:48.647Z,2.70
2018-03-21T11:03:14.798Z,2.80
2018-03-21T11:05:40.895Z,2.70
2018-03-21T11:08:07.040Z,2.90
2018-03-21T11:10:33.083Z,3.10
2018-03-21T11:12:59.171Z,3.10
2018-03-21T11:15:25.274Z,3.10
2018-03-21T11:17:51.362Z,3.10
2018-03-21T11:20:18.174Z,3.30
2018-03-21T11:22:44.254Z,3.30
2018-03-21T11:25:11.115Z,3.50
2018-03-21T11:30:17.748Z,3.50
2018-03-21T11:32:43.846Z,3.60
2018-03-21T11:35:09.975Z,3.70
2018-03-21T11:37:36.035Z,3.80
2018-03-21T11:40:02.900Z,3.60
2018-03-21T11:42:29.712Z,3.80
2018-03-21T11:44:55.828Z,3.80
2018-03-21T11:47:21.896Z,4.00
2018-03-21T11:49:48.019Z,4.10
2018-03-21T11:52:14.087Z,4.10
2018-03-21T11:54:41.042Z,4.30
2018-03-21T11:57:07.130Z,4.50
2018-03-21T11:59:33.240Z,4.80
2018-03-21T12:01:59.402Z,4.80
2018-03-21T12:04:25.483Z,4.90
2018-03-21T12:06:51.669Z,5.00
2018-03-21T12:09:18.501Z,4.80
2018-03-21T12:11:44.692Z,4.70
2018-03-21T12:14:10.777Z,5.00
2018-03-21T12:16:36.879Z,5.20
2018-03-21T12:19:02.976Z,5.40
2018-03-21T12:21:29.817Z,5.50
2018-03-21T12:23:56.718Z,5.50
2018-03-21T12:26:22.826Z,5.50
2018-03-21T12:28:49.664Z,5.70
2018-03-21T12:31:16.479Z,5.60
2018-03-21T12:33:42.578Z,5.60
2018-03-21T12:36:08.660Z,5.50
2018-03-21T12:38:34.718Z,5.70
2018-03-21T12:41:00.810Z,5.90
2018-03-21T12:43:26.898Z,6.10
2018-03-21T12:45:52.990Z,5.90
2018-03-21T12:48:19.086Z,6.00
2018-03-21T12:50:45.927Z,6.50
2018-03-21T12:53:12.020Z,6.50
2018-03-21T12:55:38.904Z,6.70
2018-03-21T12:58:04.951Z,6.60
2018-03-21T13:00:31.046Z,6.90
2018-03-21T13:02:57.194Z,7.00
2018-03-21T13:05:23.300Z,7.30
2018-03-21T13:07:50.195Z,6.90
2018-03-21T13:10:16.274Z,6.80
2018-03-21T13:12:42.367Z,6.40
2018-03-21T13:15:08.480Z,6.10
2018-03-21T13:17:34.595Z,6.40
2018-03-21T13:20:01.402Z,6.40
2018-03-21T13:22:27.491Z,6.40
2018-03-21T13:24:54.342Z,6.50
2018-03-21T13:27:21.135Z,6.80
2018-03-21T13:29:47.212Z,6.70
2018-03-21T13:32:13.301Z,7.20
2018-03-21T13:34:39.459Z,7.30
2018-03-21T13:37:05.562Z,7.20
2018-03-21T13:39:32.390Z,6.70
2018-03-21T13:41:58.563Z,6.70
2018-03-21T13:44:24.667Z,6.90
2018-03-21T13:46:50.743Z,7.40
2018-03-21T13:49:16.855Z,7.60
2018-03-21T13:51:43.687Z,8.60
2018-03-21T13:54:09.754Z,8.60
2018-03-21T13:56:36.558Z,10.70
2018-03-21T13:59:02.687Z,10.60
2018-03-21T14:01:29.543Z,12.30
2018-03-21T14:03:55.626Z,12.20
2018-03-21T14:06:21.769Z,12.70
2018-03-21T14:08:47.798Z,13.10
2018-03-21T14:11:13.899Z,13.00
2018-03-21T14:13:40.003Z,13.80
2018-03-21T14:16:06.893Z,14.20
2018-03-21T14:18:32.964Z,14.10
2018-03-21T14:20:59.066Z,14.80
2018-03-21T14:23:25.148Z,14.40
2018-03-21T14:25:51.239Z,14.00
2018-03-21T14:28:17.335Z,14.10
2018-03-21T14:30:43.411Z,14.40
2018-03-21T14:33:09.519Z,14.60
2018-03-21T14:35:36.336Z,14.40
2018-03-21T14:38:02.407Z,14.40
2018-03-21T14:40:29.307Z,15.10
2018-03-21T14:42:55.358Z,15.10
2018-03-21T14:45:21.456Z,15.30
2018-03-21T14:47:47.599Z,15.80
2018-03-21T14:50:13.762Z,16.00
2018-03-21T14:52:39.875Z,14.90
2018-03-21T14:55:05.959Z,14.80
2018-03-21T14:57:32.049Z,14.40
2018-03-21T14:59:58.195Z,14.10
2018-03-21T15:02:24.427Z,15.10
2018-03-21T15:04:50.550Z,14.60
2018-03-21T15:07:17.371Z,14.40
2018-03-21T15:09:43.484Z,14.40
2018-03-21T15:12:09.595Z,14.70
2018-03-21T15:14:35.674Z,16.30
2018-03-21T15:17:01.763Z,16.60
2018-03-21T15:19:27.823Z,16.40
2018-03-21T15:21:53.911Z,16.90
2018-03-21T15:24:19.977Z,16.80
2018-03-21T15:26:46.816Z,16.50
2018-03-21T15:29:12.879Z,16.50
2018-03-21T15:31:39.686Z,16.40
2018-03-21T15:34:05.766Z,16.30
2018-03-21T15:36:32.603Z,17.00
2018-03-21T15:38:58.654Z,16.90
2018-03-21T15:41:24.726Z,17.50
2018-03-21T15:43:50.788Z,16.20
2018-03-21T15:46:16.882Z,15.30
2018-03-21T15:48:42.958Z,15.30
2018-03-21T15:51:09.036Z,14.70
2018-03-21T15:53:35.846Z,14.10
2018-03-21T15:56:01.923Z,14.10
2018-03-21T15:58:27.986Z,13.90
2018-03-21T16:00:54.202Z,14.00
2018-03-21T16:03:20.286Z,13.90
2018-03-21T16:05:46.354Z,13.30
2018-03-21T16:08:12.423Z,13.40
2018-03-21T16:10:39.242Z,13.20
2018-03-21T16:13:05.319Z,13.20
2018-03-21T16:15:32.134Z,13.30
2018-03-21T16:17:58.202Z,13.20
2018-03-21T16:20:24.294Z,11.20
2018-03-21T16:22:50.392Z,10.60
2018-03-21T16:25:16.485Z,10.70
2018-03-21T16:27:42.559Z,10.20
2018-03-21T16:30:09.374Z,10.30
2018-03-21T16:32:35.450Z,10.30
2018-03-21T16:35:02.309Z,10.70
2018-03-21T16:37:29.122Z,10.70
2018-03-21T16:39:55.215Z,10.70
2018-03-21T16:42:21.314Z,10.50
2018-03-21T16:44:47.526Z,10.30
2018-03-21T16:47:13.590Z,9.80
2018-03-21T16:49:39.674Z,9.20
2018-03-21T16:52:05.806Z,8.60
2018-03-21T16:54:31.911Z,8.10
2018-03-21T16:56:58.096Z,7.50
2018-03-21T16:59:24.915Z,6.60
2018-03-21T17:01:51.815Z,6.20
2018-03-21T17:04:17.928Z,6.20
2018-03-21T17:06:44.078Z,5.80
2018-03-21T17:09:10.212Z,5.60
2018-03-21T17:11:36.327Z,5.30
2018-03-21T17:14:03.147Z,4.80
2018-03-21T17:16:29.311Z,4.70
2018-03-21T17:18:55.375Z,4.60
2018-03-21T17:21:21.442Z,4.60
2018-03-21T17:23:47.556Z,4.50
2018-03-21T17:26:13.636Z,4.30
2018-03-21T17:28:39.699Z,3.80
2018-03-21T17:31:06.600Z,3.10
2018-03-21T17:33:32.676Z,3.10
2018-03-21T17:35:58.764Z,2.70
2018-03-21T17:38:24.817Z,2.50
2018-03-21T17:40:50.994Z,2.10
2018-03-21T17:43:17.062Z,1.90
2018-03-21T17:45:43.890Z,1.50
2018-03-21T17:48:09.955Z,1.50
2018-03-21T17:50:36.778Z,0.90
2018-03-21T17:53:02.842Z,0.90
2018-03-21T17:55:28.930Z,0.70
2018-03-21T17:57:54.986Z,0.60
2018-03-21T18:00:21.812Z,0.30
2018-03-21T18:02:47.886Z,0.20
2018-03-21T18:05:13.980Z,0.10
2018-03-21T18:07:40.038Z,0.00
2018-03-21T18:10:06.102Z,-0.10
2018-03-21T18:12:32.178Z,-0.30
2018-03-21T18:14:58.233Z,-0.50
2018-03-21T18:17:24.319Z,-0.70
2018-03-21T18:19:50.383Z,-0.70
2018-03-21T18:22:16.454Z,-0.80
2018-03-21T18:24:42.519Z,-0.90
2018-03-21T18:27:08.596Z,-1.00
2018-03-21T18:29:34.661Z,-1.10
2018-03-21T18:32:00.795Z,-1.10
2018-03-21T18:34:27.558Z,-1.20
2018-03-21T18:36:53.676Z,-1.20
2018-03-21T18:39:19.751Z,-1.30
2018-03-21T18:41:45.831Z,-1.50
2018-03-21T18:44:12.733Z,-1.60
2018-03-21T18:46:38.890Z,-1.70
2018-03-21T18:49:04.975Z,-1.70
2018-03-21T18:51:31.128Z,-1.80
2018-03-21T18:53:57.210Z,-1.90
2018-03-21T18:56:23.299Z,-1.90
2018-03-21T18:58:49.438Z,-2.00
2018-03-21T19:01:15.523Z,-2.00
2018-03-21T19:03:41.610Z,-2.10
2018-03-21T19:06:07.762Z,-2.10
2018-03-21T19:08:33.843Z,-2.10
2018-03-21T19:10:59.918Z,-2.10
2018-03-21T19:13:26.051Z,-2.20
2018-03-21T19:15:52.131Z,-2.40
2018-03-21T19:18:18.190Z,-2.40
2018-03-21T19:20:44.304Z,-2.50
2018-03-21T19:23:10.371Z,-2.60
2018-03-21T19:25:36.440Z,-2.70
2018-03-21T19:28:02.590Z,-2.70
2018-03-21T19:30:28.719Z,-2.70
2018-03-21T19:32:54.807Z,-2.80
2018-03-21T19:35:20.896Z,-2.80
2018-03-21T19:37:47.007Z,-2.80
2018-03-21T19:40:13.183Z,-2.90
2018-03-21T19:42:39.282Z,-2.90
2018-03-21T19:45:05.479Z,-2.90
2018-03-21T19:47:31.578Z,-2.90
2018-03-21T19:49:58.443Z,-2.90
2018-03-21T19:52:24.546Z,-2.90
2018-03-21T19:54:51.452Z,-2.90
2018-03-21T19:57:17.579Z,-2.90
2018-03-21T19:59:43.643Z,-2.90
2018-03-21T20:02:09.788Z,-3.00
2018-03-21T20:04:35.862Z,-2.90
2018-03-21T20:07:02.058Z,-3.00
2018-03-21T20:09:28.164Z,-3.00
2018-03-21T20:11:54.281Z,-3.10
2018-03-21T20:14:20.444Z,-3.20
2018-03-21T20:16:46.520Z,-3.20
2018-03-21T20:19:12.587Z,-3.20
2018-03-21T20:21:39.308Z,-3.10
2018-03-21T20:24:05.468Z,-3.10
2018-03-21T20:26:31.563Z,-3.10
2018-03-21T20:28:57.699Z,-3.20
2018-03-21T20:31:23.791Z,-3.20
2018-03-21T20:33:49.867Z,-3.10
2018-03-21T20:36:16.012Z,-3.20
2018-03-21T20:38:42.074Z,-3.20
2018-03-21T20:41:08.183Z,-3.20
2018-03-21T20:43:34.243Z,-3.30
2018-03-21T20:46:00.339Z,-3.30
2018-03-21T20:48:27.196Z,-3.40
2018-03-21T20:50:54.027Z,-3.40
2018-03-21T20:53:20.115Z,-3.40
2018-03-21T20:55:46.235Z,-3.50
2018-03-21T20:58:12.311Z,-3.60
2018-03-21T21:00:38.370Z,-3.60
2018-03-21T21:03:04.443Z,-3.70
2018-03-21T21:05:31.251Z,-3.60
2018-03-21T21:07:57.331Z,-3.60
2018-03-21T21:10:24.195Z,-3.60
2018-03-21T21:12:50.278Z,-3.60
2018-03-21T21:15:16.352Z,-3.70
2018-03-21T21:17:43.176Z,-3.70
2018-03-21T21:20:09.264Z,-3.80
2018-03-21T21:22:35.351Z,-3.80
2018-03-21T21:25:01.458Z,-3.80
2018-03-21T21:27:27.599Z,-3.80
2018-03-21T21:29:53.724Z,-3.80
2018-03-21T21:32:19.794Z,-3.80
2018-03-21T21:34:45.890Z,-3.80
2018-03-21T21:37:11.998Z,-3.80
2018-03-21T21:39:38.047Z,-3.90
2018-03-21T21:42:04.194Z,-3.90
2018-03-21T21:44:31.000Z,-4.10
2018-03-21T21:46:57.118Z,-4.10
2018-03-21T21:49:23.222Z,-4.00
2018-03-21T21:51:50.098Z,-4.00
2018-03-21T21:54:16.232Z,-4.00
2018-03-21T21:56:42.306Z,-4.00
2018-03-21T21:59:08.406Z,-4.00
2018-03-21T22:01:34.558Z,-4.00
2018-03-21T22:04:00.691Z,-4.00
2018-03-21T22:06:26.846Z,-4.10
2018-03-21T22:08:53.092Z,-4.00
2018-03-21T22:11:19.291Z,-4.00
2018-03-21T22:13:46.168Z,-4.10
2018-03-21T22:16:12.282Z,-4.10
2018-03-21T22:18:39.307Z,-4.20
2018-03-21T22:21:05.486Z,-4.20
2018-03-21T22:23:32.376Z,-4.10
2018-03-21T22:25:58.487Z,-4.20
2018-03-21T22:28:24.758Z,-4.10
2018-03-21T22:30:50.834Z,-4.20
2018-03-21T22:33:17.043Z,-4.20
2018-03-21T22:35:43.171Z,-4.20
2018-03-21T22:38:09.266Z,-4.20
2018-03-21T22:40:35.328Z,-4.30
2018-03-21T22:43:02.228Z,-4.20
2018-03-21T22:45:28.374Z,-4.20
2018-03-21T22:47:54.504Z,-4.20
2018-03-21T22:50:20.841Z,-4.10
2018-03-21T22:52:47.066Z,-4.10
2018-03-21T22:55:13.187Z,-4.10
2018-03-21T22:57:39.433Z,-4.10
2018-03-21T23:00:05.583Z,-4.00
2018-03-21T23:02:31.647Z,-4.00
2018-03-21T23:04:57.793Z,-4.10
2018-03-21T23:07:24.708Z,-4.00
2018-03-21T23:09:50.832Z,-4.10
2018-03-21T23:12:17.626Z,-4.00
2018-03-21T23:14:43.779Z,-4.10
2018-03-21T23:17:09.834Z,-4.00
2018-03-21T23:19:35.919Z,-4.00
2018-03-21T23:22:02.055Z,-4.00
2018-03-21T23:24:28.257Z,-4.00
2018-03-21T23:26:54.323Z,-4.00
2018-03-21T23:29:20.398Z,-4.00
2018-03-21T23:31:46.661Z,-4.10
2018-03-21T23:34:12.732Z,-4.10
2018-03-21T23:36:39.548Z,-4.20
2018-03-21T23:39:05.629Z,-4.30
2018-03-21T23:41:31.828Z,-4.20
2018-03-21T23:43:57.995Z,-4.30
2018-03-21T23:46:24.819Z,-4.40
2018-03-21T23:48:51.057Z,-4.40
2018-03-21T23:51:17.141Z,-4.40
2018-03-21T23:53:43.400Z,-4.50
2018-03-21T23:56:09.584Z,-4.50
2018-03-21T23:58:35.652Z,-4.50
